HDAM/JIB METAR and TAF weather

Enter ICAO airport designator
Station Type Date Time Source
HDAM METAR 2018/01/22 21:00 UTC NOAA

HDAM 222100Z 00000KT CAVOK 25/21 Q1014


Station Type Date Time Source
HDAM Decoded METAR 2018/01/22 21:00 UTC NOAA

Djibouti \ Ambouli, Djibouti (HDAM) 11-33N 043-10E
Jan 22, 2018 - 04:00 PM EST / 2018.01.22 2100 UTC
Wind: Calm:0
Visibility: greater than 7 mile(s):0
Temperature: 77 F (25 C)
Dew Point: 69 F (21 C)
Relative Humidity: 78%
Pressure (altimeter): 29.94 in. Hg (1014 hPa)
ob: HDAM 222100Z 00000KT CAVOK 25/21 Q1014
cycle: 21

Station Type Date Time Source
HDAM TAF 2018/01/22 18:12 UTC NOAA

TAF TAF HDAM 221700Z 2218/2318 VRB03KT FEW020
BECMG 2300/2306 00000KT SCT020
BECMG 2306/2315 08010KT SCT023


Example: see airport list